Time;durP1;ratioP1;P1;durP2;ratioP2;P2;SDS_P1;SDS_P2;PMS_P1;PMS_P2;Temp;Humidity;BMP_temperature;BMP_pressure;BME280_temperature;BME280_humidity;BME280_pressure;Samples;Min_cycle;Max_cycle;Signal;HPM_P1;HPM_P2
2023/01/03 00:01:09;;;;;;;3.30;2.50;;;16.60;60.00;17.80;101744.00;;;;5007972;28;20167;-46
2023/01/03 00:03:34;;;;;;;3.70;2.33;;;16.60;60.20;17.80;101744.00;;;;5008651;28;20190;-46
2023/01/03 00:06:00;;;;;;;2.77;2.10;;;16.70;60.30;17.80;101738.00;;;;5007770;28;20246;-46
2023/01/03 00:08:27;;;;;;;4.10;2.20;;;16.70;60.40;17.70;101672.00;;;;5006491;28;20235;-47
2023/01/03 00:10:53;;;;;;;3.40;2.20;;;16.70;60.30;17.80;101752.00;;;;4991820;28;20168;-49
2023/01/03 00:13:18;;;;;;;2.63;2.20;;;16.80;60.10;17.80;101747.00;;;;5007515;28;20203;-46
2023/01/03 00:15:44;;;;;;;3.03;2.33;;;16.80;60.20;17.80;101749.00;;;;4991583;28;20185;-46
2023/01/03 00:18:10;;;;;;;3.30;2.23;;;16.70;60.00;17.80;101669.00;;;;5007875;28;20186;-47
2023/01/03 00:20:36;;;;;;;2.93;2.17;;;16.70;60.00;17.80;101747.00;;;;4975357;28;20199;-47
2023/01/03 00:23:01;;;;;;;3.43;2.07;;;16.80;60.00;17.80;101763.00;;;;5008894;28;20203;-54
2023/01/03 00:25:27;;;;;;;3.30;2.20;;;16.80;60.10;17.80;101668.00;;;;4991688;28;20180;-46
2023/01/03 00:27:53;;;;;;;3.30;2.20;;;16.70;60.10;17.80;101754.00;;;;4997014;28;20173;-46
2023/01/03 00:30:19;;;;;;;2.40;2.20;;;16.70;60.40;17.80;101753.00;;;;5015507;28;20664;-47
2023/01/03 00:32:44;;;;;;;3.17;2.17;;;16.70;60.20;17.80;101757.00;;;;5015279;28;20176;-47
2023/01/03 00:35:11;;;;;;;3.27;2.37;;;16.70;60.10;17.80;101660.00;;;;5009075;28;20841;-47
2023/01/03 00:37:37;;;;;;;2.40;1.93;;;16.70;60.30;17.70;101671.00;;;;5009353;28;20206;-48
2023/01/03 00:40:03;;;;;;;2.83;2.20;;;16.60;60.20;17.70;101657.00;;;;4995073;28;20250;-48
2023/01/03 00:43:27;;;;;;;2.93;2.10;;;16.60;60.30;17.70;101682.00;;;;4978584;28;20271;-48
2023/01/03 00:45:15;;;;;;;4.03;2.30;;;16.60;60.30;17.70;101757.00;;;;4997520;28;20203;-49
2023/01/03 00:47:41;;;;;;;3.03;2.30;;;16.60;60.30;17.70;101761.00;;;;5012331;28;20370;-46
2023/01/03 00:50:06;;;;;;;3.20;2.20;;;16.60;60.30;17.60;101755.00;;;;5011167;28;20179;-46
2023/01/03 00:52:32;;;;;;;3.60;2.40;;;16.50;60.50;17.60;101760.00;;;;4994611;28;20184;-47
2023/01/03 00:54:58;;;;;;;3.10;2.20;;;16.40;60.50;17.60;101772.00;;;;4994635;28;20289;-46
2023/01/03 00:57:24;;;;;;;2.63;2.30;;;16.40;60.30;17.60;101776.00;;;;5010990;28;20233;-47
2023/01/03 00:59:49;;;;;;;3.87;2.40;;;16.50;60.20;17.60;101766.00;;;;5011292;28;20230;-46
2023/01/03 01:02:15;;;;;;;3.30;2.20;;;16.50;60.20;17.60;101767.00;;;;5012199;28;20240;-48
2023/01/03 01:04:41;;;;;;;3.00;2.27;;;16.50;60.20;17.50;101773.00;;;;5011059;28;20537;-47
2023/01/03 01:07:06;;;;;;;4.17;2.10;;;16.50;60.20;17.50;101773.00;;;;5020376;28;20695;-48
2023/01/03 01:09:36;;;;;;;3.87;2.33;;;16.50;60.20;17.50;101682.00;;;;4994956;28;20239;-47
2023/01/03 01:12:03;;;;;;;3.17;2.57;;;16.40;59.70;17.40;101781.00;;;;4994650;28;20212;-46
2023/01/03 01:14:29;;;;;;;3.90;2.50;;;16.40;59.20;17.40;101717.00;;;;4994664;28;20196;-45
2023/01/03 01:16:58;;;;;;;4.53;2.30;;;16.40;59.00;17.30;101774.00;;;;4994520;28;20173;-47
2023/01/03 01:19:33;;;;;;;3.47;2.60;;;16.40;58.60;17.30;101789.00;;;;4994798;28;20227;-46
2023/01/03 01:21:58;;;;;;;3.60;2.50;;;16.40;58.60;17.20;101700.00;;;;5010571;28;20743;-45
2023/01/03 01:24:24;;;;;;;5.80;2.60;;;16.30;58.60;17.20;101724.00;;;;4994490;28;20238;-46
2023/01/03 01:26:50;;;;;;;4.13;2.73;;;16.30;58.50;17.10;101788.00;;;;4994852;28;20538;-47
2023/01/03 01:29:16;;;;;;;3.63;2.53;;;16.10;58.70;17.10;101709.00;;;;5025785;28;20175;-47
2023/01/03 01:31:43;;;;;;;4.43;2.50;;;16.10;58.70;17.10;101782.00;;;;4994144;28;20267;-46
2023/01/03 01:34:08;;;;;;;4.67;2.60;;;16.10;58.90;17.10;101791.00;;;;4994176;28;20193;-46
2023/01/03 01:36:40;;;;;;;2.50;2.10;;;16.10;59.10;17.10;101712.00;;;;4994405;28;20172;-48
2023/01/03 01:39:12;;;;;;;3.30;2.10;;;16.10;59.80;17.10;101803.00;;;;4995009;28;20196;-47
2023/01/03 01:44:54;;;;;;;2.63;2.20;;;16.10;59.20;17.10;101806.00;;;;4996818;28;20254;-46
2023/01/03 01:47:47;;;;;;;2.57;2.30;;;16.10;59.20;17.10;101822.00;;;;5011474;28;20186;-47
2023/01/03 01:50:36;;;;;;;3.23;2.17;;;16.20;59.40;17.10;101809.00;;;;5010307;28;20167;-46
2023/01/03 01:53:15;;;;;;;3.03;2.23;;;16.10;59.20;17.10;101733.00;;;;5009996;28;20606;-47
2023/01/03 01:56:03;;;;;;;3.97;2.37;;;16.10;59.40;17.10;101809.00;;;;4978233;28;20164;-48
2023/01/03 01:58:35;;;;;;;4.07;2.10;;;16.10;59.40;17.10;101827.00;;;;4996910;28;20218;-47
2023/01/03 02:01:03;;;;;;;2.17;1.97;;;16.20;59.60;17.10;101828.00;;;;4994392;28;20176;-49
2023/01/03 02:03:29;;;;;;;3.27;2.17;;;16.10;59.50;17.10;101824.00;;;;4977592;28;20200;-47
2023/01/03 02:05:54;;;;;;;2.40;2.20;;;16.10;59.50;17.10;101824.00;;;;4993824;28;20183;-48
2023/01/03 02:08:20;;;;;;;2.97;2.37;;;16.00;59.50;17.00;101836.00;;;;4977068;28;20175;-50
2023/01/03 02:11:10;;;;;;;3.63;2.50;;;15.90;59.40;17.00;101844.00;;;;4993660;28;20254;-47
2023/01/03 02:14:14;;;;;;;4.33;2.50;;;15.90;59.30;17.00;101763.00;;;;5009901;28;20205;-49
2023/01/03 02:17:13;;;;;;;2.97;2.30;;;15.80;59.40;16.90;101835.00;;;;4995934;28;20554;-46
2023/01/03 02:20:27;;;;;;;2.90;2.60;;;15.90;58.90;16.80;101749.00;;;;5009649;28;20203;-48
2023/01/03 02:23:15;;;;;;;3.00;2.23;;;15.90;58.70;16.80;101839.00;;;;5013530;28;20222;-46
2023/01/03 02:26:28;;;;;;;2.60;2.20;;;15.80;59.20;16.70;101768.00;;;;5022063;28;20226;-46
2023/01/03 02:29:49;;;;;;;3.87;2.20;;;15.70;59.20;16.70;101842.00;;;;5010229;28;20168;-47
2023/01/03 02:32:20;;;;;;;3.33;2.30;;;15.70;59.30;16.70;101851.00;;;;5009675;28;20168;-49
2023/01/03 02:35:24;;;;;;;2.20;2.00;;;15.70;59.20;16.40;101850.00;;;;4977612;28;20291;-48
2023/01/03 02:38:29;;;;;;;2.40;2.20;;;15.70;59.30;16.70;101847.00;;;;5009644;28;20171;-46
2023/01/03 02:41:17;;;;;;;4.00;2.40;;;15.80;59.20;16.70;101851.00;;;;5008916;28;20266;-48
2023/01/03 02:44:21;;;;;;;3.10;2.40;;;15.80;59.30;16.70;101864.00;;;;4995761;28;20695;-49
2023/01/03 02:47:11;;;;;;;2.30;2.10;;;15.80;59.20;16.70;101768.00;;;;4996095;28;20534;-48
2023/01/03 02:49:42;;;;;;;3.10;2.10;;;15.80;59.30;16.70;101861.00;;;;4995869;28;20187;-48
2023/01/03 02:52:35;;;;;;;2.60;2.30;;;15.70;59.30;16.60;101769.00;;;;4992975;28;20171;-45
2023/01/03 02:55:15;;;;;;;3.73;2.20;;;15.60;58.90;16.60;101854.00;;;;5006591;28;20241;-46
2023/01/03 02:58:04;;;;;;;3.57;2.40;;;15.60;58.90;16.60;101842.00;;;;4993902;28;20194;-46
2023/01/03 03:00:30;;;;;;;2.67;2.10;;;15.60;59.00;16.30;101851.00;;;;4992570;28;20191;-47
2023/01/03 03:03:05;;;;;;;3.30;2.10;;;15.60;59.10;16.60;101773.00;;;;5006132;28;20194;-45
2023/01/03 03:05:55;;;;;;;3.87;2.20;;;15.60;59.10;16.60;101839.00;;;;4993911;28;20155;-48
2023/01/03 03:08:21;;;;;;;4.33;2.20;;;15.60;59.00;16.60;101766.00;;;;4995383;28;20200;-48
2023/01/03 03:13:43;;;;;;;3.50;2.27;;;15.60;58.90;16.60;101757.00;;;;4994583;28;20272;-47
2023/01/03 03:16:46;;;;;;;4.10;2.13;;;15.70;59.00;16.70;101854.00;;;;5008877;28;20748;-47
2023/01/03 03:25:50;;;;;;;3.00;2.10;;;15.70;59.60;16.60;101852.00;;;;5008793;28;20238;-47
2023/01/03 03:28:34;;;;;;;2.90;2.03;;;15.70;58.90;16.60;101860.00;;;;5008271;28;20166;-47
2023/01/03 03:31:17;;;;;;;2.60;2.10;;;15.70;58.80;16.60;101776.00;;;;4994189;28;20259;-48
2023/01/03 03:34:10;;;;;;;3.67;2.40;;;15.70;58.90;16.60;101858.00;;;;4992233;28;20199;-48
2023/01/03 03:37:03;;;;;;;3.57;2.23;;;15.70;58.90;16.60;101871.00;;;;5002737;28;20187;-47
2023/01/03 03:46:08;;;;;;;2.20;2.00;;;15.60;58.70;16.60;101862.00;;;;4975992;28;20199;-45
2023/01/03 03:49:36;;;;;;;3.77;2.40;;;15.60;58.70;16.50;101746.00;;;;4995267;28;20203;-46
2023/01/03 03:51:24;;;;;;;2.10;1.90;;;15.60;58.60;16.50;101859.00;;;;5008072;28;20183;-47
2023/01/03 03:53:50;;;;;;;2.90;2.40;;;15.60;58.60;16.50;101860.00;;;;5008003;28;20196;-47
2023/01/03 03:56:16;;;;;;;2.97;2.20;;;15.60;58.50;16.50;101856.00;;;;5008316;28;20176;-46
2023/01/03 03:58:45;;;;;;;2.80;2.00;;;15.60;58.80;16.50;101769.00;;;;4991734;28;20175;-46
2023/01/03 04:01:16;;;;;;;2.63;2.20;;;15.60;58.80;16.50;101861.00;;;;5000784;28;20184;-48
2023/01/03 04:03:42;;;;;;;3.53;2.20;;;15.60;58.60;16.50;101781.00;;;;4972549;28;20200;-45
2023/01/03 04:06:16;;;;;;;2.87;2.07;;;15.50;58.60;16.50;101777.00;;;;4972587;28;20318;-46
2023/01/03 04:08:42;;;;;;;4.13;2.03;;;15.60;58.60;16.50;101862.00;;;;4973144;28;20206;-47
2023/01/03 04:11:07;;;;;;;2.73;2.00;;;15.60;58.50;16.30;101856.00;;;;4972540;28;20191;-45
2023/01/03 04:13:35;;;;;;;3.27;2.00;;;15.50;58.50;16.50;101859.00;;;;4975338;28;20196;-48
2023/01/03 04:16:01;;;;;;;2.63;2.00;;;15.50;58.40;16.50;101865.00;;;;4977355;28;20164;-48
2023/01/03 04:18:26;;;;;;;3.67;2.30;;;15.40;58.40;16.40;101855.00;;;;4992945;28;20251;-46
2023/01/03 04:20:52;;;;;;;3.40;2.10;;;15.50;58.40;16.40;101782.00;;;;4977025;28;20274;-45
2023/01/03 04:23:18;;;;;;;4.23;2.10;;;15.50;58.40;16.40;101762.00;;;;4976190;28;20629;-47
2023/01/03 04:25:43;;;;;;;2.47;2.00;;;15.50;58.40;16.40;101849.00;;;;4976816;28;20745;-46
2023/01/03 04:28:09;;;;;;;4.87;2.17;;;15.40;58.30;16.40;101844.00;;;;4992693;28;20222;-46
2023/01/03 04:30:35;;;;;;;4.00;2.00;;;15.40;58.50;16.40;101852.00;;;;4960158;28;20186;-46
2023/01/03 04:33:04;;;;;;;4.57;2.10;;;15.40;58.60;16.40;101850.00;;;;4977133;28;20638;-47
2023/01/03 04:35:31;;;;;;;5.47;2.03;;;15.40;58.60;16.40;101849.00;;;;5003149;28;20168;-47
2023/01/03 04:37:57;;;;;;;2.20;2.00;;;15.40;58.70;16.40;101789.00;;;;4993539;28;20175;-47
2023/01/03 04:40:22;;;;;;;2.27;2.03;;;15.40;58.70;16.40;101848.00;;;;4959910;28;20304;-47
2023/01/03 04:45:49;;;;;;;3.57;1.70;;;15.50;59.00;16.40;101770.00;;;;4947725;29;20272;-47
2023/01/03 04:48:15;;;;;;;5.53;2.00;;;15.50;59.00;16.40;101869.00;;;;4991232;28;20216;-45
2023/01/03 04:50:41;;;;;;;3.73;2.07;;;15.60;59.00;16.40;101870.00;;;;4996643;28;20168;-49
2023/01/03 04:53:07;;;;;;;4.80;2.40;;;15.50;59.10;16.40;101861.00;;;;4976154;28;20184;-48
2023/01/03 04:55:32;;;;;;;3.67;2.00;;;15.40;59.10;16.40;101858.00;;;;5004089;28;20700;-46
2023/01/03 04:57:58;;;;;;;3.57;1.90;;;15.40;59.20;16.40;101865.00;;;;4992823;28;20728;-47
2023/01/03 05:00:24;;;;;;;2.57;1.80;;;15.50;59.30;16.40;101862.00;;;;4991454;28;20210;-48
2023/01/03 05:02:49;;;;;;;3.10;1.90;;;15.40;59.40;16.40;101788.00;;;;4990953;28;20168;-47
2023/01/03 05:05:15;;;;;;;5.13;1.90;;;15.60;59.60;16.40;101870.00;;;;4974533;28;20263;-47
2023/01/03 05:07:41;;;;;;;2.10;1.80;;;15.50;59.60;16.40;101775.00;;;;4943953;28;20160;-46
2023/01/03 05:10:07;;;;;;;4.03;2.00;;;15.50;59.60;16.40;101862.00;;;;4975325;28;20172;-48
2023/01/03 05:12:33;;;;;;;1.83;1.70;;;15.50;59.70;16.40;101873.00;;;;4978896;28;20173;-47
2023/01/03 05:14:58;;;;;;;3.20;2.10;;;15.50;59.80;16.40;101858.00;;;;5001508;28;20206;-46
2023/01/03 05:17:24;;;;;;;5.20;1.90;;;15.40;59.80;16.40;101875.00;;;;5014006;28;20172;-47
2023/01/03 05:28:03;;;;;;;4.60;1.97;;;15.40;60.00;16.30;101696.00;;;;5012694;28;20179;-48
2023/01/03 05:30:29;;;;;;;4.27;1.90;;;15.40;60.10;16.00;101756.00;;;;5011304;28;20168;-48
2023/01/03 05:32:54;;;;;;;5.23;2.00;;;15.40;60.10;16.30;101773.00;;;;5010385;28;20215;-46
2023/01/03 05:35:20;;;;;;;9.07;2.30;;;15.40;60.20;16.30;101865.00;;;;5010819;28;20168;-45
2023/01/03 05:37:46;;;;;;;4.33;2.10;;;15.40;60.10;16.30;101778.00;;;;5010682;28;20231;-47
2023/01/03 05:40:12;;;;;;;7.83;2.00;;;15.40;60.10;16.30;101769.00;;;;5009071;28;20200;-45
2023/01/03 05:42:38;;;;;;;5.20;2.00;;;15.40;60.20;16.30;101853.00;;;;5009918;28;20243;-46
2023/01/03 05:45:04;;;;;;;2.53;1.93;;;15.40;60.20;16.30;101861.00;;;;4993884;28;20211;-47
2023/01/03 05:47:30;;;;;;;4.20;1.83;;;15.30;60.20;16.30;101818.00;;;;5010584;28;20897;-46
2023/01/03 05:49:56;;;;;;;3.77;1.80;;;15.40;60.30;16.20;101766.00;;;;5011666;28;20182;-46
2023/01/03 05:52:22;;;;;;;3.43;1.90;;;15.40;60.40;16.20;101854.00;;;;5010048;28;20692;-48
2023/01/03 05:54:47;;;;;;;3.00;1.80;;;15.40;60.40;16.20;101860.00;;;;5010204;28;20199;-47
2023/01/03 05:57:13;;;;;;;4.33;1.90;;;15.30;60.30;16.20;101774.00;;;;5011799;28;20203;-47
2023/01/03 05:59:39;;;;;;;5.30;1.80;;;15.30;60.30;16.20;101861.00;;;;5010774;28;20833;-45
2023/01/03 06:02:04;;;;;;;5.53;1.70;;;15.30;60.40;16.20;101763.00;;;;5021356;28;20250;-46
2023/01/03 06:04:30;;;;;;;3.27;2.00;;;15.40;60.50;16.20;101854.00;;;;4995840;28;20282;-48
2023/01/03 06:06:56;;;;;;;3.93;1.73;;;15.30;60.40;16.20;101854.00;;;;4995244;28;20182;-47
2023/01/03 06:09:22;;;;;;;4.83;1.80;;;15.30;60.40;16.20;101853.00;;;;5010572;28;20180;-46
2023/01/03 06:11:47;;;;;;;4.87;1.80;;;15.30;60.50;16.20;101847.00;;;;5010174;28;20179;-47
2023/01/03 06:14:13;;;;;;;1.50;1.40;;;15.30;60.50;16.20;101875.00;;;;4993277;28;20202;-47
2023/01/03 06:19:23;;;;;;;1.87;1.60;;;15.30;60.60;16.20;101862.00;;;;5010185;28;20219;-47
2023/01/03 06:21:49;;;;;;;2.80;1.80;;;15.30;60.60;16.10;101853.00;;;;5009540;28;20164;-44
2023/01/03 06:24:15;;;;;;;2.43;1.73;;;15.30;60.70;16.10;101857.00;;;;5011185;28;20192;-47
2023/01/03 06:26:40;;;;;;;2.17;1.60;;;15.30;60.70;16.10;101857.00;;;;5011111;28;20156;-47
2023/01/03 06:29:06;;;;;;;2.60;1.80;;;15.20;60.50;16.10;101851.00;;;;4993300;28;20265;-47
2023/01/03 06:31:32;;;;;;;2.50;1.60;;;15.20;60.50;16.10;101786.00;;;;5009933;28;20167;-46
2023/01/03 06:33:58;;;;;;;2.97;1.80;;;15.30;60.70;16.10;101869.00;;;;5009192;28;20676;-46
2023/01/03 06:36:26;;;;;;;2.57;1.57;;;15.20;60.60;16.10;101876.00;;;;5009621;28;20203;-46
2023/01/03 06:38:52;;;;;;;1.60;1.50;;;15.20;60.60;16.10;101877.00;;;;5009561;28;20258;-46
2023/01/03 06:41:18;;;;;;;2.50;1.77;;;15.20;60.70;16.10;101882.00;;;;4992384;28;20275;-47
2023/01/03 06:43:44;;;;;;;2.43;1.67;;;15.20;60.60;16.10;101881.00;;;;4992458;28;20191;-47
2023/01/03 06:54:30;;;;;;;1.70;1.60;;;15.20;60.70;16.00;101876.00;;;;5013463;28;20198;-46
2023/01/03 06:56:56;;;;;;;1.83;1.73;;;15.20;60.90;16.00;101815.00;;;;5026780;28;20223;-47
2023/01/03 06:59:22;;;;;;;1.80;1.70;;;15.10;60.70;16.00;101880.00;;;;5010525;28;20205;-46
2023/01/03 07:01:48;;;;;;;1.40;1.30;;;15.20;60.80;16.00;101875.00;;;;5013590;28;20728;-47
2023/01/03 07:04:14;;;;;;;2.13;1.70;;;15.10;60.80;16.00;101884.00;;;;5010790;28;20811;-47
2023/01/03 07:06:40;;;;;;;1.83;1.50;;;15.10;60.80;16.00;101794.00;;;;5009917;28;20175;-47
2023/01/03 07:09:06;;;;;;;1.80;1.70;;;15.10;60.90;16.00;101883.00;;;;5009846;28;20191;-48
2023/01/03 07:11:32;;;;;;;1.80;1.70;;;15.10;60.90;16.00;101877.00;;;;5009673;28;20446;-47
2023/01/03 07:13:57;;;;;;;1.50;1.33;;;15.10;60.90;16.00;101877.00;;;;5010783;28;20192;-47
2023/01/03 07:16:27;;;;;;;2.60;1.53;;;15.10;60.90;16.00;101881.00;;;;5009576;28;20652;-46
2023/01/03 07:18:53;;;;;;;1.87;1.40;;;15.10;61.00;15.70;101887.00;;;;5009496;28;20711;-48
2023/01/03 07:21:19;;;;;;;1.50;1.40;;;15.10;60.90;16.00;101890.00;;;;4992867;28;20184;-46
2023/01/03 07:23:45;;;;;;;1.93;1.57;;;15.10;61.00;16.00;101886.00;;;;5013359;28;20245;-46
2023/01/03 07:26:11;;;;;;;1.50;1.40;;;15.10;61.00;16.00;101886.00;;;;5016724;28;20187;-46
2023/01/03 07:28:36;;;;;;;1.67;1.57;;;15.10;61.00;16.00;101885.00;;;;5009093;28;20168;-45
2023/01/03 07:31:04;;;;;;;1.60;1.50;;;15.10;61.00;16.00;101892.00;;;;5009548;28;20176;-47
2023/01/03 07:33:30;;;;;;;1.50;1.40;;;15.10;61.10;15.90;101883.00;;;;4992821;28;20194;-46
2023/01/03 07:36:03;;;;;;;1.90;1.50;;;15.00;61.00;15.90;101896.00;;;;5010265;28;20179;-46
2023/01/03 07:38:29;;;;;;;1.90;1.47;;;15.00;61.10;15.90;101899.00;;;;4977037;28;20179;-45
2023/01/03 07:40:58;;;;;;;1.40;1.30;;;15.00;61.00;15.90;101903.00;;;;5009115;28;20211;-47
2023/01/03 07:43:36;;;;;;;2.10;1.60;;;15.10;61.10;15.90;101902.00;;;;4992693;28;20199;-48
2023/01/03 07:46:06;;;;;;;1.83;1.60;;;15.00;61.10;15.90;101899.00;;;;5009504;28;20584;-46
2023/01/03 07:48:32;;;;;;;1.57;1.37;;;15.00;61.10;15.90;101915.00;;;;5009295;28;20183;-45
2023/01/03 07:50:58;;;;;;;1.83;1.33;;;15.00;61.10;15.90;101912.00;;;;4992759;28;20257;-48
2023/01/03 07:53:24;;;;;;;1.70;1.60;;;15.00;61.10;15.90;101912.00;;;;5008519;28;20223;-47
2023/01/03 07:55:49;;;;;;;1.63;1.53;;;15.00;61.10;15.90;101902.00;;;;5008777;28;20668;-46
2023/01/03 07:58:15;;;;;;;1.67;1.57;;;15.00;61.30;15.90;101901.00;;;;5008977;28;20176;-47
2023/01/03 08:00:41;;;;;;;2.13;1.57;;;14.90;61.10;15.90;101911.00;;;;5009047;28;20231;-47
2023/01/03 08:03:07;;;;;;;1.40;1.30;;;15.00;61.30;15.90;101915.00;;;;5019445;28;20172;-46
2023/01/03 08:05:34;;;;;;;1.17;1.17;;;15.00;61.40;15.90;101823.00;;;;5017660;28;20164;-46
2023/01/03 08:08:00;;;;;;;1.50;1.40;;;15.00;61.30;15.90;101902.00;;;;5009024;28;20187;-47
2023/01/03 08:13:16;;;;;;;1.60;1.50;;;15.00;61.30;15.90;101907.00;;;;5008559;28;20237;-46
2023/01/03 08:15:45;;;;;;;1.40;1.27;;;14.90;61.30;15.90;101919.00;;;;5012467;28;20628;-48
2023/01/03 08:18:11;;;;;;;1.57;1.47;;;14.90;61.30;15.80;101924.00;;;;5029486;28;20232;-45
2023/01/03 08:20:37;;;;;;;1.33;1.23;;;14.90;61.20;15.80;101924.00;;;;5011941;28;20195;-46
2023/01/03 08:23:03;;;;;;;1.60;1.50;;;14.90;61.10;15.80;101924.00;;;;5027817;28;20616;-46
2023/01/03 08:25:29;;;;;;;1.33;1.23;;;14.90;61.20;15.80;101926.00;;;;5028150;28;20200;-46
2023/01/03 08:27:59;;;;;;;1.47;1.37;;;14.90;61.20;15.80;101840.00;;;;5028370;28;20167;-48
2023/01/03 08:30:24;;;;;;;1.47;1.37;;;14.90;61.40;15.80;101857.00;;;;5028619;28;20250;-46
2023/01/03 08:32:51;;;;;;;1.60;1.50;;;14.90;61.40;15.80;101922.00;;;;5027853;28;20603;-46
2023/01/03 08:35:17;;;;;;;1.70;1.50;;;14.90;61.50;15.80;101919.00;;;;5028304;28;20278;-47
2023/01/03 08:37:44;;;;;;;1.77;1.60;;;14.80;61.70;15.80;101915.00;;;;5017452;28;20190;-45
2023/01/03 08:40:10;;;;;;;1.50;1.40;;;14.80;61.70;15.80;101905.00;;;;5006903;28;20196;-45
2023/01/03 08:42:36;;;;;;;2.20;1.53;;;14.80;62.00;15.70;101913.00;;;;4990028;28;20187;-45
2023/01/03 08:45:05;;;;;;;2.40;1.40;;;14.90;62.60;15.80;101908.00;;;;4990146;28;20188;-45
2023/01/03 08:47:31;;;;;;;2.93;1.60;;;14.90;62.50;15.80;101825.00;;;;5012806;28;20183;-46
2023/01/03 08:49:56;;;;;;;1.60;1.50;;;15.00;62.40;15.80;101909.00;;;;5015148;28;20645;-46
2023/01/03 08:52:22;;;;;;;2.03;1.23;;;15.00;62.20;15.90;101905.00;;;;4975375;28;20183;-47
2023/01/03 08:54:48;;;;;;;1.50;1.40;;;15.20;62.30;15.90;101916.00;;;;4991374;28;20207;-48
2023/01/03 08:57:14;;;;;;;1.53;1.40;;;15.30;62.00;16.00;101910.00;;;;4991123;28;20174;-49
2023/01/03 08:59:40;;;;;;;1.13;1.03;;;15.40;61.80;16.00;101912.00;;;;4998984;28;20202;-47
2023/01/03 09:02:06;;;;;;;1.27;1.17;;;15.60;61.70;16.10;101827.00;;;;5018754;28;20178;-48
2023/01/03 09:04:32;;;;;;;2.67;1.50;;;15.70;61.30;16.20;101922.00;;;;5001585;28;20191;-47
2023/01/03 09:06:58;;;;;;;1.20;1.07;;;16.00;61.30;16.30;101837.00;;;;5013475;28;20314;-46
2023/01/03 09:09:23;;;;;;;1.30;1.20;;;16.10;60.90;16.50;101938.00;;;;4995026;28;20176;-46
2023/01/03 09:11:49;;;;;;;2.83;1.50;;;16.30;60.70;16.30;101941.00;;;;4995110;28;20167;-46
2023/01/03 09:14:15;;;;;;;1.30;1.20;;;16.40;60.50;16.70;101935.00;;;;5012238;28;20202;-47
2023/01/03 09:16:41;;;;;;;1.20;1.20;;;16.50;60.30;16.80;101933.00;;;;5009743;28;20263;-48
2023/01/03 09:19:06;;;;;;;1.90;1.10;;;16.70;60.40;16.90;101934.00;;;;5010708;28;20267;-45
2023/01/03 09:21:32;;;;;;;1.60;1.50;;;16.80;60.50;17.00;101931.00;;;;4994230;28;20191;-46
2023/01/03 09:23:58;;;;;;;6.70;1.50;;;16.90;60.60;17.10;101930.00;;;;5011053;28;20222;-46
2023/01/03 09:26:24;;;;;;;6.63;1.70;;;17.00;60.50;17.20;101934.00;;;;5011369;28;20633;-45
2023/01/03 09:28:50;;;;;;;9.40;1.80;;;17.00;60.70;17.30;101945.00;;;;5011784;28;20183;-47
2023/01/03 09:31:15;;;;;;;4.63;1.97;;;17.00;61.60;17.30;101850.00;;;;5010891;28;20171;-46
2023/01/03 09:33:41;;;;;;;5.83;1.80;;;17.10;62.10;17.40;101932.00;;;;4994257;28;20199;-46
2023/01/03 09:36:07;;;;;;;6.40;2.53;;;17.20;62.50;17.50;101944.00;;;;5011297;28;20178;-47
2023/01/03 09:38:33;;;;;;;6.07;2.00;;;17.40;62.70;17.60;101949.00;;;;5011798;28;20174;-46
2023/01/03 09:41:19;;;;;;;5.13;2.17;;;17.40;62.60;17.70;101904.00;;;;4994080;28;20295;-46
2023/01/03 09:43:46;;;;;;;5.37;2.07;;;17.50;62.40;17.80;101939.00;;;;4994832;28;20193;-46
2023/01/03 09:46:21;;;;;;;4.07;1.87;;;17.60;62.30;17.80;101938.00;;;;5010928;28;20163;-46
2023/01/03 09:48:47;;;;;;;5.70;1.87;;;17.70;62.20;17.90;101938.00;;;;4994821;28;20220;-46
2023/01/03 10:03:43;;;;;;;4.30;1.90;;;18.10;61.70;18.30;101927.00;;;;5012492;28;20210;-46
2023/01/03 10:06:30;;;;;;;4.60;1.87;;;18.20;61.70;18.40;101941.00;;;;5012353;28;20184;-48
2023/01/03 10:09:28;;;;;;;3.57;1.80;;;18.20;61.70;18.50;101936.00;;;;5011238;28;20205;-47
2023/01/03 10:12:28;;;;;;;2.73;1.70;;;18.20;61.60;18.20;101931.00;;;;5011094;28;20162;-46
2023/01/03 10:15:06;;;;;;;2.40;1.63;;;18.30;61.60;18.50;101929.00;;;;5001332;28;20202;-48
2023/01/03 10:17:53;;;;;;;3.03;1.77;;;18.30;61.60;18.60;101853.00;;;;5010431;28;20155;-47
2023/01/03 10:20:48;;;;;;;2.80;1.60;;;18.40;61.50;18.60;101932.00;;;;5010250;28;20191;-47
2023/01/03 10:23:13;;;;;;;2.33;1.67;;;18.40;61.50;18.60;101937.00;;;;4993854;28;20190;-48
2023/01/03 10:25:42;;;;;;;4.23;1.60;;;18.40;61.40;18.70;101936.00;;;;5010008;28;20167;-47
2023/01/03 10:28:17;;;;;;;3.00;1.50;;;18.40;61.50;18.70;101931.00;;;;5010154;28;20247;-47
2023/01/03 10:31:03;;;;;;;2.10;1.80;;;18.40;61.50;18.80;101935.00;;;;4993993;28;20182;-46
2023/01/03 10:33:35;;;;;;;2.77;1.47;;;18.50;61.60;18.80;101924.00;;;;5010089;28;20537;-46
2023/01/03 10:36:01;;;;;;;2.47;1.67;;;18.50;61.60;18.80;101849.00;;;;5011593;28;20453;-46
2023/01/03 10:38:27;;;;;;;3.00;1.33;;;18.50;61.40;18.80;101932.00;;;;4993817;28;20306;-47
2023/01/03 10:40:59;;;;;;;2.27;1.40;;;18.60;61.60;18.90;101928.00;;;;4993855;28;20199;-47
2023/01/03 10:43:36;;;;;;;1.47;1.27;;;18.60;61.50;18.90;101914.00;;;;5009621;28;20200;-47
2023/01/03 10:46:14;;;;;;;2.77;1.57;;;18.60;61.50;18.90;101916.00;;;;5010062;28;20171;-47
2023/01/03 10:48:51;;;;;;;2.03;1.50;;;18.60;61.50;19.00;101830.00;;;;5009805;28;20613;-46
2023/01/03 10:51:25;;;;;;;3.70;1.50;;;18.60;61.60;19.00;101908.00;;;;4993675;28;20221;-47
2023/01/03 10:53:52;;;;;;;1.77;1.50;;;18.70;61.60;19.00;101907.00;;;;5022955;28;20198;-46
2023/01/03 10:56:18;;;;;;;1.40;1.30;;;18.70;61.50;19.00;101895.00;;;;5021913;28;20637;-47
2023/01/03 10:58:43;;;;;;;1.80;1.70;;;18.70;61.40;19.10;101899.00;;;;5009723;28;20182;-47
2023/01/03 11:01:21;;;;;;;2.07;1.57;;;18.70;62.20;19.10;101898.00;;;;4993353;28;20199;-48
2023/01/03 11:04:14;;;;;;;1.60;1.40;;;18.70;61.50;19.10;101891.00;;;;5009197;28;20191;-47
2023/01/03 11:07:07;;;;;;;1.30;1.20;;;18.70;61.50;19.10;101904.00;;;;5009142;28;20229;-46
2023/01/03 11:10:14;;;;;;;1.53;1.43;;;18.80;61.50;19.20;101881.00;;;;4993832;28;20178;-47
2023/01/03 11:12:43;;;;;;;1.40;1.30;;;18.90;61.50;19.20;101892.00;;;;4998570;28;20212;-45
2023/01/03 11:15:31;;;;;;;1.50;1.40;;;18.80;61.30;19.20;101892.00;;;;4993237;28;20207;-46
2023/01/03 11:17:58;;;;;;;4.77;1.40;;;18.90;61.40;19.20;101878.00;;;;5008944;28;20232;-46
2023/01/03 11:20:39;;;;;;;1.33;1.17;;;18.90;61.40;19.30;101889.00;;;;4982936;28;20188;-46
2023/01/03 11:23:54;;;;;;;2.33;1.43;;;18.90;61.50;19.30;101886.00;;;;4989553;28;20168;-46
2023/01/03 11:26:43;;;;;;;1.73;1.33;;;18.90;61.50;19.30;101887.00;;;;4989663;28;20197;-47
2023/01/03 11:29:14;;;;;;;2.10;1.60;;;19.00;61.60;19.30;101885.00;;;;4989433;28;20196;-46
2023/01/03 11:32:23;;;;;;;2.20;1.23;;;18.90;61.50;19.40;101879.00;;;;4993106;28;20175;-47
2023/01/03 11:35:36;;;;;;;1.33;1.20;;;19.00;61.60;19.40;101889.00;;;;4995436;28;20215;-47
2023/01/03 11:38:26;;;;;;;1.37;1.27;;;19.00;61.60;19.40;101885.00;;;;5024206;28;20183;-47
2023/01/03 11:41:08;;;;;;;1.90;1.43;;;19.00;61.60;19.40;101880.00;;;;4991426;28;20241;-46
2023/01/03 11:44:03;;;;;;;2.87;1.50;;;19.00;61.60;19.40;101883.00;;;;4991140;28;20229;-47
2023/01/03 11:47:06;;;;;;;3.30;1.50;;;19.00;61.70;19.40;101882.00;;;;5011136;28;20195;-47
2023/01/03 11:50:14;;;;;;;7.00;1.83;;;19.00;62.80;19.40;101877.00;;;;4999306;28;20193;-46
2023/01/03 11:52:53;;;;;;;6.83;1.50;;;19.00;62.20;19.40;101871.00;;;;5000329;28;20215;-46
2023/01/03 11:55:40;;;;;;;2.97;1.50;;;19.00;62.10;19.50;101870.00;;;;4989732;28;20845;-47
2023/01/03 11:58:38;;;;;;;5.10;1.57;;;19.00;62.20;19.50;101859.00;;;;4982954;28;20683;-46
2023/01/03 12:01:12;;;;;;;6.57;1.50;;;19.00;62.30;19.50;101858.00;;;;5000521;28;20198;-46
2023/01/03 12:03:47;;;;;;;2.97;1.50;;;19.00;62.40;19.50;101785.00;;;;4999488;28;20673;-46
2023/01/03 12:06:31;;;;;;;2.40;1.30;;;19.00;62.50;19.50;101850.00;;;;4999163;28;20191;-46